Latest Weather Observations for Grafton Airport

IDN60801

Issued at 6:02 pm EST Saturday 27 May 2017 (issued every 30 minutes, with the page automatically refreshed every 10 minutes)

About weather observations | Map of weather stations | Latest weather observations for NSW | Other Formats
Station Details ID: 058161 Name: GRAFTON AIRPORT AWS Lat: -29.76 Lon: 153.03 Height: 25.09 m
Data from the previous 72 hours. | See also: Recent months at Grafton Airport
Date/Time
EST
Temp
°C
App
Temp
°C
Dew
Point
°C
Rel
Hum
%
Delta-T
°C
Wind Press
QNH
hPa
Press
MSL
hPa
Rain since
9am
mm
Dir  Spd
km/h
Gust
km/h
Spd
kts
Gust
kts
27/06:00pm 17.2 16.7 13.7 80 2.0 NNE 9 11 5 6 1019.3 1019.3 0.2
27/05:30pm 18.4 18.9 14.1 76 2.5 NE 4 7 2 4 1019.0 1019.0 0.2
27/05:00pm 19.3 18.5 14.1 72 3.0 NE 11 15 6 8 1018.9 1018.9 0.2
27/04:30pm 20.4 19.5 13.6 65 3.9 NNE 11 15 6 8 1018.8 1018.8 0.2
27/04:00pm 21.6 19.8 13.2 59 4.8 NNE 15 17 8 9 1018.9 1018.9 0.2
27/03:30pm 22.0 20.5 13.1 57 5.1 NNE 13 17 7 9 1018.8 1018.8 0.2
27/03:00pm 22.4 20.7 12.4 53 5.7 NNE 13 17 7 9 1018.7 1018.7 0.2
27/02:30pm 22.6 20.9 12.5 53 5.8 NE 13 19 7 10 1018.8 1018.8 0.2
27/02:00pm 22.1 20.6 13.2 57 5.1 N 13 19 7 10 1019.2 1019.2 0.2
27/01:30pm 22.6 21.0 13.9 58 5.1 NNE 15 20 8 11 1019.4 1019.4 0.2
27/01:00pm 22.2 21.7 13.8 59 4.9 NNE 9 15 5 8 1019.8 1019.8 0.2
27/12:30pm 21.4 20.8 13.6 61 4.5 NNE 9 15 5 8 1020.2 1020.2 0.2
27/12:00pm 21.4 21.4 14.1 63 4.2 N 7 13 4 7 1020.6 1020.6 0.2
27/11:30am 21.4 21.6 14.3 64 4.1 NNW 6 11 3 6 1021.2 1021.2 0.2
27/11:00am 20.6 20.5 13.3 63 4.2 NNE 6 9 3 5 1021.9 1021.9 0.2
27/10:30am 19.8 20.7 14.0 69 3.3 WNW 2 7 1 4 1022.2 1022.2 0.2
27/10:00am 18.3 19.1 13.8 75 2.6 SSE 2 7 1 4 1022.6 1022.6 0.0
27/09:30am 16.3 16.5 13.2 82 1.7 S 4 7 2 4 1022.8 1022.8 0.0
27/09:00am 14.6 14.6 12.5 87 1.1 S 4 7 2 4 1022.8 1022.8 0.0
27/08:30am 13.2 12.6 12.4 95 0.4 SW 7 9 4 5 1022.9 1022.9 0.0
27/08:00am 12.2 11.5 12.0 99 0.1 S 7 9 4 5 1022.8 1022.8 0.0
27/07:30am 11.0 10.1 10.8 99 0.1 SSE 6 7 3 4 1022.6 1022.6 0.0
27/07:00am 9.1 8.9 9.0 99 0.0 CALM 0 0 0 0 1022.5 1022.5 0.0
27/06:32am 8.7 7.2 8.3 97 0.2 WSW 6 7 3 4 1022.2 1022.2 0.0
27/06:30am 8.6 7.4 8.2 97 0.2 WSW 4 7 2 4 1022.2 1022.2 0.0
27/06:01am 8.4 7.9 8.0 97 0.2 CALM 0 7 0 4 1021.9 1021.9 0.0
27/06:00am 8.5 8.1 8.1 97 0.2 CALM 0 0 0 0 1021.8 1021.8 0.0
27/05:30am 9.2 8.5 8.7 97 0.2 SSE 2 7 1 4 1021.4 1021.4 0.0
27/05:01am 9.7 9.6 9.4 98 0.1 CALM 0 0 0 0 1021.2 1021.2 0.0
27/05:00am 9.7 9.6 9.4 98 0.1 CALM 0 0 0 0 1021.2 1021.2 0.0
27/04:41am 9.7 9.5 9.2 97 0.2 CALM 0 0 0 0 1021.2 1021.2 0.0
27/04:30am 9.6 9.4 9.1 97 0.2 CALM 0 0 0 0 1021.2 1021.2 0.0
27/04:18am 10.0 9.2 9.7 98 0.2 S 4 7 2 4 1021.1 1021.1 0.0
27/04:00am 10.7 9.7 10.4 98 0.2 SSE 6 7 3 4 1021.1 1021.1 0.0
27/03:30am 9.7 9.5 8.9 95 0.4 CALM 0 0 0 0 1021.2 1021.2 0.0
27/03:16am 10.0 9.9 9.4 96 0.3 CALM 0 0 0 0 1021.3 1021.3 0.0
27/03:00am 10.5 10.5 9.9 96 0.3 CALM 0 0 0 0 1021.2 1021.2 0.0
27/02:32am 10.7 10.0 10.1 96 0.3 S 4 7 2 4 1021.2 1021.2 0.0
27/02:30am 10.8 10.1 10.2 96 0.3 S 4 7 2 4 1021.2 1021.2 0.0
27/02:15am 11.3 11.5 10.7 96 0.3 CALM 0 0 0 0 1021.4 1021.4 0.0
27/02:13am 11.1 11.3 10.5 96 0.3 CALM 0 0 0 0 1021.5 1021.5 0.0
27/02:00am 11.3 11.5 10.5 95 0.4 CALM 0 0 0 0 1021.6 1021.6 0.0
27/01:30am 11.0 11.0 9.9 93 0.6 CALM 0 0 0 0 1021.5 1021.5 0.0
27/01:16am 11.2 10.6 10.4 95 0.4 SSW 4 6 2 3 1021.6 1021.6 0.0
27/01:00am 12.1 11.4 11.5 96 0.3 SSW 6 9 3 5 1021.5 1021.5 0.0
27/12:30am 12.5 11.9 11.7 95 0.4 S 6 7 3 4 1021.6 1021.6 0.0
27/12:00am 13.0 12.5 12.2 95 0.4 SW 6 7 3 4 1021.5 1021.5 0.0
 
Date/Time
EST
Temp
°C
App
Temp
°C
Dew
Point
°C
Rel
Hum
%
Delta-T
°C
Wind Press
QNH
hPa
Press
MSL
hPa
Rain since
9am
mm
Dir  Spd
km/h
Gust
km/h
Spd
kts
Gust
kts
26/11:30pm 13.3 12.7 12.4 94 0.5 SW 7 9 4 5 1021.5 1021.5 0.0
26/11:00pm 13.7 12.8 12.6 93 0.6 SSW 9 11 5 6 1021.6 1021.6 0.0
26/10:30pm 13.7 13.2 12.8 94 0.5 SW 7 9 4 5 1021.7 1021.7 0.0
26/10:00pm 13.7 13.5 12.9 95 0.4 SSW 6 7 3 4 1021.7 1021.7 0.0
26/09:30pm 13.6 13.2 12.3 92 0.7 SW 6 9 3 5 1021.6 1021.6 0.0
26/09:00pm 14.2 13.9 13.2 94 0.6 SSW 7 9 4 5 1021.5 1021.5 0.0
26/08:30pm 13.4 12.9 12.5 94 0.5 SSW 7 9 4 5 1021.3 1021.3 0.0
26/08:00pm 13.4 12.8 12.3 93 0.6 SSW 7 9 4 5 1020.9 1020.9 0.0
26/07:30pm 14.0 13.5 12.7 92 0.7 SSW 7 9 4 5 1020.7 1020.7 0.0
26/07:00pm 14.6 15.5 13.0 90 0.9 CALM 0 0 0 0 1020.3 1020.3 0.0
26/06:30pm 15.8 16.7 12.9 83 1.6 CALM 0 0 0 0 1020.0 1020.0 0.0
26/06:00pm 17.1 16.8 12.6 75 2.5 SE 6 7 3 4 1019.6 1019.6 0.0
26/05:30pm 18.1 17.3 13.0 72 2.9 ESE 9 13 5 7 1019.2 1019.2 0.0
26/05:00pm 18.8 18.1 13.2 70 3.2 ESE 9 13 5 7 1019.0 1019.0 0.0
26/04:30pm 20.4 21.3 12.9 62 4.3 CALM 0 0 0 0 1018.9 1018.9 0.0
26/04:00pm 21.7 21.3 12.3 55 5.3 E 6 7 3 4 1018.7 1018.7 0.0
26/03:30pm 22.1 21.9 11.8 52 5.8 E 4 9 2 5 1018.5 1018.5 0.0
26/03:00pm 22.2 21.7 12.7 55 5.4 ENE 7 13 4 7 1018.4 1018.4 0.0
26/02:30pm 22.1 21.6 12.6 55 5.4 ENE 7 13 4 7 1018.5 1018.5 0.0
26/02:00pm 22.5 22.0 12.7 54 5.6 N 7 11 4 6 1018.7 1018.7 0.0
26/01:30pm 22.0 21.5 12.0 53 5.6 N 6 13 3 7 1018.9 1018.9 0.0
26/01:00pm 21.6 20.7 12.7 57 5.0 NNE 9 13 5 7 1019.3 1019.3 0.0
26/12:30pm 21.2 19.8 12.3 57 5.0 N 11 15 6 8 1019.7 1019.7 0.0
26/12:00pm 21.0 20.5 12.7 59 4.7 NNE 7 13 4 7 1020.2 1020.2 0.0
26/11:30am 20.2 20.3 12.7 62 4.2 NE 4 11 2 6 1020.7 1020.7 0.0
26/11:00am 19.9 19.7 13.1 65 3.8 NNE 6 9 3 5 1021.1 1021.1 0.0
26/10:30am 18.1 18.3 11.7 66 3.5 WNW 2 9 1 5 1021.4 1021.4 0.0
26/10:00am 16.6 16.1 12.0 74 2.5 S 6 11 3 6 1021.4 1021.4 0.0
26/09:30am 14.7 13.9 11.1 79 1.9 SW 6 7 3 4 1021.6 1021.6 0.0
26/09:00am 12.9 11.9 10.4 85 1.3 SW 6 9 3 5 1021.6 1021.6 0.0
26/08:30am 11.6 11.5 9.5 87 1.1 CALM 0 0 0 0 1021.3 1021.3 0.0
26/08:00am 9.9 9.8 9.6 98 0.1 CALM 0 0 0 0 1021.2 1021.2 0.0
26/07:30am 8.3 7.9 8.2 99 0.0 CALM 0 0 0 0 1021.2 1021.2 0.0
26/07:00am 7.6 7.0 7.3 98 0.1 CALM 0 0 0 0 1020.9 1020.9 0.0
26/06:30am 7.4 6.7 7.1 98 0.1 CALM 0 0 0 0 1020.8 1020.8 0.0
26/06:00am 7.1 6.3 6.7 97 0.2 CALM 0 0 0 0 1020.5 1020.5 0.0
26/05:30am 7.1 6.3 6.7 97 0.2 CALM 0 0 0 0 1020.1 1020.1 0.0
26/05:00am 7.4 6.7 7.0 97 0.2 CALM 0 0 0 0 1019.9 1019.9 0.0
26/04:46am 7.7 5.7 7.3 97 0.2 SSW 7 9 4 5 1019.8 1019.8 0.0
26/04:30am 7.8 7.2 7.4 97 0.2 CALM 0 0 0 0 1019.8 1019.8 0.0
26/04:17am 7.8 7.2 7.4 97 0.2 CALM 0 0 0 0 1019.9 1019.9 0.0
26/04:00am 8.4 7.9 8.0 97 0.2 CALM 0 0 0 0 1019.9 1019.9 0.0
26/03:30am 8.3 7.8 7.9 97 0.2 CALM 0 0 0 0 1020.0 1020.0 0.0
26/03:00am 8.5 8.1 8.1 97 0.2 CALM 0 0 0 0 1020.1 1020.1 0.0
26/02:30am 8.5 8.0 7.9 96 0.3 CALM 0 0 0 0 1020.2 1020.2 0.0
26/02:00am 8.7 8.2 7.9 95 0.4 CALM 0 0 0 0 1020.4 1020.4 0.0
26/01:30am 9.5 9.3 9.0 97 0.2 CALM 0 0 0 0 1020.4 1020.4 0.0
26/01:00am 9.1 8.8 8.5 96 0.3 CALM 0 0 0 0 1020.6 1020.6 0.0
26/12:30am 9.6 9.4 9.0 96 0.3 CALM 0 0 0 0 1020.7 1020.7 0.0
26/12:00am 9.6 9.3 8.7 94 0.4 CALM 0 0 0 0 1020.8 1020.8 0.0
 
Date/Time
EST
Temp
°C
App
Temp
°C
Dew
Point
°C
Rel
Hum
%
Delta-T
°C
Wind Press
QNH
hPa
Press
MSL
hPa
Rain since
9am
mm
Dir  Spd
km/h
Gust
km/h
Spd
kts
Gust
kts
25/11:30pm 10.3 8.9 9.7 96 0.3 S 7 7 4 4 1021.0 1021.0 0.0
25/11:00pm 10.5 8.8 9.9 96 0.3 SSW 9 9 5 5 1021.2 1021.2 0.0
25/10:30pm 10.5 10.4 9.6 94 0.5 CALM 0 0 0 0 1021.2 1021.2 0.0
25/10:00pm 11.1 10.1 10.2 94 0.5 SSW 6 9 3 5 1021.2 1021.2 0.0
25/09:30pm 11.0 9.8 10.2 95 0.4 SW 7 9 4 5 1021.1 1021.1 0.0
25/09:00pm 10.7 9.3 9.5 92 0.6 SW 7 9 4 5 1021.0 1021.0 0.0
25/08:30pm 11.3 11.3 9.7 90 0.8 CALM 0 0 0 0 1020.9 1020.9 0.0
25/08:00pm 12.0 10.4 10.1 88 1.0 SSW 9 11 5 6 1020.8 1020.8 0.0
25/07:30pm 12.2 10.6 10.1 87 1.1 S 9 11 5 6 1020.6 1020.6 0.0
25/07:00pm 12.8 11.8 10.3 85 1.3 SW 6 6 3 3 1020.4 1020.4 0.0
25/06:30pm 13.7 13.7 9.9 78 2.0 CALM 0 0 0 0 1020.1 1020.1 0.0
25/06:00pm 15.0 13.8 9.6 70 2.8 S 6 7 3 4 1019.7 1019.7 0.0
25/05:30pm 16.4 14.9 9.3 63 3.7 SE 7 11 4 6 1019.4 1019.4 0.0
25/05:00pm 17.4 15.6 9.3 59 4.2 SE 9 13 5 7 1019.1 1019.1 0.0
25/04:30pm 18.6 16.1 9.7 56 4.7 ESE 13 19 7 10 1018.9 1018.9 0.0
25/04:00pm 20.0 17.6 10.1 53 5.3 ESE 13 19 7 10 1018.6 1018.6 0.0
25/03:30pm 21.2 20.4 8.1 43 6.8 S 2 7 1 4 1018.4 1018.4 0.0
25/03:00pm 22.3 21.1 8.1 40 7.4 SSW 4 9 2 5 1018.3 1018.3 0.0
25/02:30pm 22.1 20.3 7.1 38 7.7 WSW 6 9 3 5 1018.3 1018.3 0.0
25/02:00pm 22.1 21.0 7.1 38 7.7 NW 2 9 1 5 1018.3 1018.3 0.0
25/01:30pm 21.3 19.4 6.8 39 7.4 ENE 6 9 3 5 1018.4 1018.4 0.0
25/01:00pm 21.9 20.5 7.3 39 7.5 NW 4 7 2 4 1018.8 1018.8 0.0
25/12:30pm 20.7 18.5 8.0 44 6.6 SE 9 13 5 7 1019.0 1019.0 0.0
25/12:00pm 20.9 19.6 9.2 47 6.2 SSE 6 11 3 6 1019.5 1019.5 0.0
25/11:30am 20.0 18.5 8.4 47 6.0 SSE 6 13 3 7 1020.0 1020.0 0.0
25/11:00am 19.2 17.8 9.4 53 5.2 S 7 13 4 7 1020.4 1020.4 0.0
25/10:30am 18.6 15.9 8.8 53 5.1 S 13 19 7 10 1020.7 1020.7 0.0
25/10:00am 18.2 16.5 9.8 58 4.4 SW 9 13 5 7 1020.8 1020.8 0.0
25/09:30am 17.0 16.1 11.3 69 3.1 SSW 7 9 4 5 1021.0 1021.0 0.0
25/09:00am 15.5 14.0 10.7 73 2.5 SSW 9 13 5 7 1020.8 1020.8 0.0
25/08:30am 14.3 12.9 10.9 80 1.8 SSW 9 13 5 7 1020.6 1020.6 0.0
25/08:00am 12.4 11.1 10.1 86 1.2 SW 7 11 4 6 1020.5 1020.5 0.0
25/07:30am 11.1 10.0 10.8 98 0.2 SSW 7 9 4 5 1020.2 1020.2 0.0
25/07:00am 10.2 8.9 9.9 98 0.2 SW 7 9 4 5 1020.0 1020.0 0.0
25/06:30am 10.1 9.0 9.8 98 0.2 S 6 9 3 5 1019.6 1019.6 0.0
25/06:00am 9.5 8.1 9.0 97 0.2 SSW 6 9 3 5 1018.9 1018.9 0.0
25/05:30am 9.8 8.5 9.3 97 0.2 SSW 6 9 3 5 1018.5 1018.5 0.0
25/05:00am 10.3 9.0 10.0 98 0.2 SSW 7 9 4 5 1018.1 1018.1 0.0
25/04:30am 10.1 9.6 9.5 96 0.3 W 2 6 1 3 1017.9 1017.9 0.0
25/04:00am 10.8 9.6 10.3 97 0.3 S 7 11 4 6 1017.7 1017.7 0.0
25/03:30am 11.0 10.4 10.5 97 0.3 SSE 4 9 2 5 1017.4 1017.4 0.0
25/03:00am 11.6 10.6 11.1 97 0.3 S 7 9 4 5 1017.4 1017.4 0.0
25/02:30am 11.2 10.0 10.4 95 0.4 SW 7 9 4 5 1017.1 1017.1 0.0
25/02:00am 12.4 12.9 11.6 95 0.4 CALM 0 0 0 0 1017.1 1017.1 0.0
25/01:30am 12.3 11.4 11.5 95 0.4 SSW 7 9 4 5 1017.0 1017.0 0.0
25/01:00am 12.8 12.1 12.0 95 0.4 SW 7 9 4 5 1016.9 1016.9 0.0
25/12:30am 13.0 13.2 11.9 93 0.6 ESE 2 7 1 4 1016.9 1016.9 0.0
25/12:00am 13.6 14.2 12.0 90 0.9 CALM 0 0 0 0 1016.7 1016.7 0.0
 
Date/Time
EST
Temp
°C
App
Temp
°C
Dew
Point
°C
Rel
Hum
%
Delta-T
°C
Wind Press
QNH
hPa
Press
MSL
hPa
Rain since
9am
mm
Dir  Spd
km/h
Gust
km/h
Spd
kts
Gust
kts
24/11:30pm 14.4 15.3 12.8 90 0.9 CALM 0 0 0 0 1016.7 1016.7 0.0
24/11:00pm 15.0 14.9 13.2 89 1.0 SSW 6 7 3 4 1016.5 1016.5 0.0
24/10:30pm 15.4 14.7 13.2 87 1.2 S 9 11 5 6 1016.4 1016.4 0.0
24/10:00pm 16.6 16.4 13.5 82 1.7 SW 7 9 4 5 1016.0 1016.0 0.0
24/09:30pm 16.8 16.5 13.3 80 2.0 SSW 7 9 4 5 1015.8 1015.8 0.0
24/09:00pm 16.7 16.6 13.4 81 1.9 WSW 6 7 3 4 1015.7 1015.7 0.0
24/08:30pm 17.4 16.7 13.1 76 2.4 SSE 9 11 5 6 1015.6 1015.6 0.0
24/08:00pm 19.7 20.4 13.4 67 3.6 WSW 2 7 1 4 1014.9 1014.9 0.0
24/07:30pm 18.6 20.0 14.5 77 2.4 CALM 0 6 0 3 1014.6 1014.6 0.0
24/07:00pm 19.4 21.1 15.3 77 2.4 CALM 0 0 0 0 1014.5 1014.5 0.0
24/06:30pm 19.6 21.3 15.3 76 2.5 CALM 0 7 0 4 1014.2 1014.2 0.0

Other Formats:

Comma delimited format used in spreadsheet applications
http://www.bom.gov.au/fwo/IDN60801/IDN60801.95570.axf

JavaScript Object Notation format (JSON) in row-major order
http://www.bom.gov.au/fwo/IDN60801/IDN60801.95570.json